Time;durP1;ratioP1;P1;durP2;ratioP2;P2;SDS_P1;SDS_P2;PMS_P1;PMS_P2;Temp;Humidity;BMP_temperature;BMP_pressure;BME280_temperature;BME280_humidity;BME280_pressure;Samples;Min_cycle;Max_cycle;Signal;HPM_P1;HPM_P2
2023/02/06 00:00:12;;;;;;;;;8.50;7.25;;;;;1.99;57.75;101527.22;146615;733;46914;-74
2023/02/06 00:03:14;;;;;;;;;8.25;6.75;;;;;1.99;58.47;101537.44;146616;581;45021;-72
2023/02/06 00:06:10;;;;;;;;;8.00;6.25;;;;;1.99;58.76;101534.87;146614;571;46014;-71
2023/02/06 00:09:21;;;;;;;;;4.00;4.00;;;;;0.12;59.20;101225.19;146615;634;46020;-72
2023/02/06 00:12:38;;;;;;;;;6.75;5.75;;;;;-0.13;58.46;101169.19;146612;705;46014;-72
2023/02/06 00:15:33;;;;;;;;;7.25;6.00;;;;;1.97;58.77;101531.31;146619;652;46010;-72
2023/02/06 00:18:39;;;;;;;;;4.75;4.75;;;;;1.97;58.66;101538.97;146612;578;46014;-71
2023/02/06 00:21:33;;;;;;;;;8.75;7.75;;;;;1.94;59.70;101546.34;146616;612;46020;-71
2023/02/06 00:24:42;;;;;;;;;6.00;4.00;;;;;1.94;59.47;101536.13;146612;582;46017;-72
2023/02/06 00:27:43;;;;;;;;;4.75;4.00;;;;;1.94;58.24;101546.34;146618;625;45020;-71
2023/02/06 00:30:40;;;;;;;;;7.75;7.00;;;;;1.93;58.03;101544.50;146612;566;46017;-75
2023/02/06 00:33:49;;;;;;;;;;;;;;;;;;;;;
2023/02/06 00:36:50;;;;;;;;;5.00;5.00;;;;;1.87;57.18;101526.94;146613;625;45018;-72
2023/02/06 00:40:00;;;;;;;;;7.50;5.25;;;;;1.88;57.94;101538.06;146612;577;46021;-73
2023/02/06 00:43:36;;;;;;;;;5.00;5.00;;;;;1.90;57.95;101554.44;146615;611;46012;-72
2023/02/06 00:46:34;;;;;;;;;5.00;5.00;;;;;1.88;57.78;101536.41;146619;595;46011;-73
2023/02/06 00:49:54;;;;;;;;;;;;;;;;;;;;;
2023/02/06 00:53:00;;;;;;;;;6.50;6.25;;;;;2.00;58.80;101545.28;146637;620;45020;-79
2023/02/06 00:56:19;;;;;;;;;4.25;4.25;;;;;0.01;58.23;101187.53;146632;613;45910;-76
2023/02/06 00:59:28;;;;;;;;;5.75;5.00;;;;;2.03;58.30;101552.37;146633;663;46010;-81
2023/02/06 01:02:44;;;;;;;;;7.50;5.75;;;;;-0.04;58.32;101181.97;146636;615;45032;-76
2023/02/06 01:05:52;;;;;;;;;4.75;3.75;;;;;2.03;58.39;101550.69;146637;613;46010;-72
2023/02/06 01:08:56;;;;;;;;;9.50;5.75;;;;;2.04;57.63;101554.16;146636;687;45013;-73
2023/02/06 01:12:08;;;;;;;;;5.25;5.00;;;;;2.05;57.59;101543.16;146633;592;45020;-73
2023/02/06 01:15:03;;;;;;;;;3.75;3.75;;;;;2.05;57.39;101554.28;146636;642;45014;-77
2023/02/06 01:18:19;;;;;;;;;4.75;3.50;;;;;2.05;56.80;101556.84;146635;584;45020;-80
2023/02/06 01:21:33;;;;;;;;;9.25;7.75;;;;;0.06;57.41;101205.09;146634;580;45912;-79
2023/02/06 01:24:26;;;;;;;;;5.50;4.25;;;;;2.06;57.48;101560.34;146640;596;45012;-81
2023/02/06 01:27:36;;;;;;;;;4.50;4.50;;;;;2.04;57.32;101565.28;146632;611;45016;-80
2023/02/06 01:31:06;;;;;;;;;12.00;9.00;;;;;2.02;57.26;101550.53;146630;608;46021;-80
2023/02/06 01:34:17;;;;;;;;;9.50;5.25;;;;;2.02;57.69;101545.41;146636;647;45016;-79
2023/02/06 01:37:30;;;;;;;;;9.50;7.75;;;;;2.02;57.76;101547.97;146640;630;45010;-78
2023/02/06 01:40:32;;;;;;;;;4.75;3.00;;;;;2.01;57.86;101538.50;146633;628;46012;-80
2023/02/06 01:43:31;;;;;;;;;8.50;8.50;;;;;2.01;57.57;101538.50;146636;569;45020;-77
2023/02/06 01:46:30;;;;;;;;;7.00;7.00;;;;;2.02;57.98;101535.19;146634;652;46017;-75
2023/02/06 01:50:02;;;;;;;;;7.00;5.50;;;;;0.97;58.28;101344.25;146636;571;45020;-76
2023/02/06 01:53:02;;;;;;;;;8.00;6.50;;;;;1.98;58.41;101520.31;146634;569;45017;-77
2023/02/06 01:56:04;;;;;;;;;8.00;7.25;;;;;1.97;58.16;101523.62;146641;590;45010;-77
2023/02/06 01:59:06;;;;;;;;;3.75;3.00;;;;;1.94;57.89;101525.88;146633;563;46012;-79
2023/02/06 02:02:25;;;;;;;;;10.00;8.75;;;;;1.90;57.56;101517.00;146638;633;45020;-79
2023/02/06 02:05:37;;;;;;;;;;;;;;;;;;;;;
2023/02/06 02:08:59;;;;;;;;;7.25;5.50;;;;;1.80;57.91;101517.72;146635;579;45020;-73
2023/02/06 02:12:05;;;;;;;;;10.75;8.75;;;;;1.74;57.79;101532.47;146637;563;45012;-74
2023/02/06 02:15:18;;;;;;;;;7.50;5.25;;;;;1.70;57.44;101532.94;146636;588;45027;-74
2023/02/06 02:18:39;;;;;;;;;4.00;4.00;;;;;1.70;58.31;101511.56;146635;604;46037;-74
2023/02/06 02:22:14;;;;;;;;;7.50;5.00;;;;;-0.03;57.64;101215.28;146636;579;45013;-78
2023/02/06 02:26:03;;;;;;;;;;;;;;;;;;;;;
2023/02/06 02:30:12;;;;;;;;;;;;;;;;;;;;;
2023/02/06 02:33:55;;;;;;;;;5.50;4.75;;;;;1.63;57.17;101538.19;146634;631;45012;-73
2023/02/06 02:37:29;;;;;;;;;17.25;13.25;;;;;1.63;56.87;101548.41;146632;608;45024;-74
2023/02/06 02:41:40;;;;;;;;;5.00;5.00;;;;;-0.35;57.09;101181.44;146633;574;46908;-73
2023/02/06 02:45:48;;;;;;;;;3.75;3.75;;;;;-0.48;55.55;101180.94;146634;626;45914;-74
2023/02/06 02:48:51;;;;;;;;;9.25;7.25;;;;;1.52;56.56;101532.00;146635;583;45016;-72
2023/02/06 02:52:27;;;;;;;;;4.00;3.75;;;;;-0.13;56.10;101252.41;146616;571;47010;-70
2023/02/06 02:55:43;;;;;;;;;5.00;5.00;;;;;0.59;55.74;101390.72;146611;570;46016;-71
2023/02/06 02:58:53;;;;;;;;;3.25;2.25;;;;;1.53;55.89;101551.72;146616;570;46010;-70
2023/02/06 03:02:30;;;;;;;;;5.25;4.00;;;;;-0.89;55.58;101133.41;146613;583;46016;-72
2023/02/06 03:05:45;;;;;;;;;5.50;3.50;;;;;0.34;56.56;101356.69;146617;573;46012;-72
2023/02/06 03:09:26;;;;;;;;;4.50;4.00;;;;;-0.41;56.13;101223.22;146610;602;47016;-76
2023/02/06 03:13:17;;;;;;;;;;;;;;;;;;;;;
2023/02/06 03:16:28;;;;;;;;;4.00;3.50;;;;;1.53;57.32;101566.16;146610;585;46017;-72
2023/02/06 03:19:51;;;;;;;;;4.25;4.25;;;;;1.54;57.03;101561.19;146618;622;46010;-75
2023/02/06 03:22:53;;;;;;;;;5.50;5.00;;;;;1.51;57.78;101565.09;146611;576;46912;-74
2023/02/06 03:26:05;;;;;;;;;4.00;3.00;;;;;1.51;57.09;101580.41;146616;573;46010;-71
2023/02/06 03:29:16;;;;;;;;;4.00;3.00;;;;;-0.51;56.66;101222.28;146613;571;46017;-69
2023/02/06 03:32:51;;;;;;;;;5.50;5.50;;;;;-0.24;57.32;101279.38;146615;575;46010;-73
2023/02/06 03:36:09;;;;;;;;;;;;;;;;;;;;;
2023/02/06 03:39:30;;;;;;;;;7.00;6.00;;;;;1.60;57.67;101589.91;146614;628;46020;-73
2023/02/06 03:43:01;;;;;;;;;9.75;8.75;;;;;1.65;57.98;101609.91;146614;575;46016;-73
2023/02/06 03:46:22;;;;;;;;;7.75;6.00;;;;;0.28;57.06;101361.19;146617;565;46010;-75
2023/02/06 03:49:21;;;;;;;;;8.00;6.25;;;;;1.69;56.68;101610.38;146615;588;46012;-74
2023/02/06 03:52:33;;;;;;;;;9.25;8.00;;;;;1.69;56.72;101610.38;146619;610;45024;-74
2023/02/06 03:55:36;;;;;;;;;10.00;8.75;;;;;1.73;56.27;101621.81;146612;660;46016;-76
2023/02/06 03:58:39;;;;;;;;;6.25;5.75;;;;;1.75;56.31;101617.78;146616;608;46010;-76
2023/02/06 04:01:34;;;;;;;;;6.25;4.50;;;;;1.75;56.40;101613.56;146616;628;46012;-77
2023/02/06 04:04:48;;;;;;;;;5.00;3.00;;;;;1.77;56.74;101627.38;146614;606;47010;-78
2023/02/06 04:07:58;;;;;;;;;8.25;6.75;;;;;1.77;57.46;101627.38;146612;558;46017;-73
2023/02/06 04:11:02;;;;;;;;;7.00;5.75;;;;;1.76;57.82;101617.00;146617;630;46010;-72
2023/02/06 04:14:07;;;;;;;;;;;;;;;;;;;;;
2023/02/06 04:17:13;;;;;;;;;8.25;4.75;;;;;1.73;57.41;101640.63;146614;573;46020;-72
2023/02/06 04:20:29;;;;;;;;;8.00;7.75;;;;;1.73;57.67;101643.16;146614;628;46016;-71
2023/02/06 04:23:41;;;;;;;;;7.75;7.00;;;;;1.73;57.89;101638.06;146615;613;46010;-70
2023/02/06 04:26:36;;;;;;;;;7.00;7.00;;;;;1.73;58.40;101629.50;146613;598;47012;-72
2023/02/06 04:29:33;;;;;;;;;7.75;7.75;;;;;1.71;57.62;101649.78;146611;570;46021;-71
2023/02/06 04:32:28;;;;;;;;;9.00;7.50;;;;;1.70;57.64;101653.09;146616;622;46016;-72
2023/02/06 04:35:26;;;;;;;;;7.25;4.50;;;;;1.70;58.28;101660.75;146617;602;46012;-73
2023/02/06 04:38:22;;;;;;;;;10.25;8.00;;;;;1.71;58.42;101659.09;146612;633;46022;-70
2023/02/06 04:41:33;;;;;;;;;6.00;3.00;;;;;1.69;57.86;101652.94;146616;563;46020;-72
2023/02/06 04:44:44;;;;;;;;;;;;;;;;;;;;;
2023/02/06 04:47:51;;;;;;;;;8.50;8.50;;;;;1.63;57.41;101655.78;146615;790;46020;-71
2023/02/06 04:51:06;;;;;;;;;10.50;7.75;;;;;1.64;57.50;101661.78;146611;596;46015;-73
2023/02/06 04:54:17;;;;;;;;;;;;;;;;;;;;;
2023/02/06 04:57:27;;;;;;;;;9.25;8.75;;;;;1.67;57.47;101662.09;146612;591;46913;-72
2023/02/06 05:00:24;;;;;;;;;8.75;8.00;;;;;1.70;57.71;101662.41;146608;612;46020;-72
2023/02/06 05:03:31;;;;;;;;;8.50;6.75;;;;;1.71;57.47;101674.44;146616;630;46012;-71
2023/02/06 05:06:54;;;;;;;;;10.25;8.25;;;;;-0.22;57.94;101323.72;146609;574;47010;-70
2023/02/06 05:10:00;;;;;;;;;8.25;7.75;;;;;1.74;57.20;101660.31;146610;702;46014;-70
2023/02/06 05:12:58;;;;;;;;;9.75;8.50;;;;;1.75;56.65;101672.38;146614;571;46020;-72
2023/02/06 05:15:51;;;;;;;;;6.75;6.75;;;;;1.77;56.20;101675.06;146616;622;46012;-71
2023/02/06 05:19:06;;;;;;;;;9.00;7.00;;;;;1.75;56.22;101664.69;146616;635;46020;-70
2023/02/06 05:22:04;;;;;;;;;9.00;5.75;;;;;1.70;56.50;101659.88;146614;621;46013;-71
2023/02/06 05:25:21;;;;;;;;;8.75;6.25;;;;;1.72;56.37;101672.06;146615;631;46010;-73
2023/02/06 05:28:26;;;;;;;;;9.25;7.75;;;;;1.74;56.68;101683.31;146611;633;47012;-72
2023/02/06 05:31:21;;;;;;;;;9.50;6.50;;;;;1.78;57.09;101682.00;146615;581;46012;-75
2023/02/06 05:34:17;;;;;;;;;8.75;8.50;;;;;1.79;56.76;101682.16;146614;591;46016;-75
2023/02/06 05:37:14;;;;;;;;;12.75;9.75;;;;;1.75;56.85;101681.69;146611;585;47010;-75
2023/02/06 05:40:33;;;;;;;;;;;;;;;;;;;;;
2023/02/06 05:43:30;;;;;;;;;9.00;8.00;;;;;1.64;57.18;101701.03;146616;591;46010;-68
2023/02/06 05:46:32;;;;;;;;;10.25;9.00;;;;;1.62;56.32;101706.00;146613;580;46016;-70
2023/02/06 05:49:27;;;;;;;;;11.75;8.75;;;;;1.62;56.74;101707.66;146615;615;46020;-70
2023/02/06 05:52:25;;;;;;;;;10.25;9.00;;;;;1.62;56.52;101715.34;146610;591;46017;-71
2023/02/06 05:55:39;;;;;;;;;11.00;10.00;;;;;1.65;56.20;101718.19;146613;592;46020;-71
2023/02/06 05:58:52;;;;;;;;;11.00;8.00;;;;;1.68;55.71;101715.94;146607;615;46015;-73
2023/02/06 06:01:58;;;;;;;;;9.00;7.75;;;;;1.67;55.60;101714.13;146614;601;47010;-71
2023/02/06 06:05:03;;;;;;;;;10.50;8.00;;;;;1.70;56.06;101719.56;146611;613;46016;-70
2023/02/06 06:08:01;;;;;;;;;14.50;9.50;;;;;1.73;55.80;101726.66;146613;581;46010;-73
2023/02/06 06:11:33;;;;;;;;;7.25;6.25;;;;;1.75;55.80;101722.59;146612;564;47012;-77
2023/02/06 06:14:34;;;;;;;;;9.50;9.00;;;;;1.74;55.88;101724.22;146615;614;46010;-69
2023/02/06 06:17:48;;;;;;;;;9.00;7.00;;;;;1.76;55.69;101734.63;146612;585;45910;-73
2023/02/06 06:20:46;;;;;;;;;10.00;9.75;;;;;1.82;55.62;101741.28;146611;559;46021;-72
2023/02/06 06:23:45;;;;;;;;;10.75;8.75;;;;;1.88;56.41;101745.22;146606;641;47016;-72
2023/02/06 06:26:58;;;;;;;;;18.50;15.75;;;;;1.92;56.80;101748.22;146614;569;46010;-74
2023/02/06 06:30:01;;;;;;;;;15.00;12.00;;;;;0.01;55.91;101394.06;146611;606;46017;-72
2023/02/06 06:33:15;;;;;;;;;5.00;3.00;;;;;1.96;56.52;101741.75;146608;613;46914;-77
2023/02/06 06:36:23;;;;;;;;;13.75;10.75;;;;;2.01;56.25;101738.03;146612;636;46012;-76
2023/02/06 06:39:26;;;;;;;;;14.00;10.75;;;;;2.15;57.08;101749.66;146615;628;46010;-73
2023/02/06 06:42:20;;;;;;;;;17.50;14.25;;;;;2.26;57.04;101747.41;146608;565;47012;-71
2023/02/06 06:45:24;;;;;;;;;17.00;14.75;;;;;2.35;56.65;101746.56;146607;626;46021;-72
2023/02/06 06:48:35;;;;;;;;;14.25;13.00;;;;;2.80;55.75;101756.97;146609;696;46012;-72
2023/02/06 06:51:33;;;;;;;;;20.00;13.25;;;;;2.94;54.48;101749.00;146610;581;46021;-73
2023/02/06 06:54:57;;;;;;;;;18.00;14.25;;;;;2.91;54.77;101764.06;146608;592;46016;-73
2023/02/06 06:58:08;;;;;;;;;11.50;9.00;;;;;2.92;54.87;101771.00;146614;569;46020;-72
2023/02/06 07:01:15;;;;;;;;;16.00;14.50;;;;;2.84;55.10;101780.50;146614;682;46012;-72
2023/02/06 07:04:17;;;;;;;;;11.75;10.50;;;;;2.73;55.32;101776.84;146615;634;46012;-73
2023/02/06 07:07:32;;;;;;;;;12.25;9.75;;;;;2.65;56.07;101788.00;146611;631;46012;-72
2023/02/06 07:11:02;;;;;;;;;16.00;11.00;;;;;2.59;56.10;101784.84;146611;647;46020;-72
2023/02/06 07:14:00;;;;;;;;;10.25;10.25;;;;;2.48;56.11;101786.31;146613;567;46013;-74
2023/02/06 07:17:04;;;;;;;;;14.25;12.25;;;;;2.40;55.75;101794.91;146616;596;46020;-73
2023/02/06 07:20:11;;;;;;;;;13.75;12.75;;;;;2.34;56.79;101801.03;146609;617;46912;-73
2023/02/06 07:23:37;;;;;;;;;;;;;;;;;;;;;
2023/02/06 07:26:40;;;;;;;;;11.25;10.75;;;;;2.61;56.98;101802.91;146613;606;46033;-72
2023/02/06 07:29:38;;;;;;;;;18.75;16.50;;;;;2.86;57.37;101796.00;146609;624;46020;-72
2023/02/06 07:32:37;;;;;;;;;17.25;14.50;;;;;3.05;56.10;101802.19;146608;769;46012;-73
2023/02/06 07:35:40;;;;;;;;;16.25;16.00;;;;;3.12;54.96;101803.72;146608;649;46021;-73
2023/02/06 07:38:55;;;;;;;;;10.50;9.75;;;;;3.24;54.94;101799.78;146609;601;46012;-74
2023/02/06 07:42:34;;;;;;;;;9.50;6.25;;;;;3.50;54.43;101801.41;146618;592;46011;-73
2023/02/06 07:45:29;;;;;;;;;12.75;10.50;;;;;3.75;54.21;101796.97;146611;586;46016;-73
2023/02/06 07:48:23;;;;;;;;;12.25;10.25;;;;;3.97;53.22;101787.97;146607;576;46020;-71
2023/02/06 07:51:32;;;;;;;;;16.50;13.75;;;;;1.94;53.48;101442.38;146611;564;46012;-72
2023/02/06 07:54:32;;;;;;;;;17.00;15.25;;;;;3.93;54.08;101784.22;146615;763;46020;-73
2023/02/06 07:57:42;;;;;;;;;11.75;11.25;;;;;4.03;53.21;101800.47;146612;574;47014;-71
2023/02/06 08:00:48;;;;;;;;;;;;;;;;;;;;;
2023/02/06 08:03:41;;;;;;;;;9.00;7.25;;;;;4.01;50.53;101809.69;146609;583;46912;-72
2023/02/06 08:07:08;;;;;;;;;13.75;9.50;;;;;3.89;52.68;101815.47;146616;605;46010;-73
2023/02/06 08:10:05;;;;;;;;;5.75;5.75;;;;;4.08;51.94;101819.75;146610;569;46016;-72
2023/02/06 08:13:01;;;;;;;;;13.25;10.25;;;;;4.19;50.30;101811.41;146617;579;46010;-70
2023/02/06 08:16:22;;;;;;;;;9.00;8.00;;;;;4.29;51.75;101820.88;146612;573;46016;-72
2023/02/06 08:19:53;;;;;;;;;11.50;7.25;;;;;2.82;51.50;101510.50;146614;610;46020;-71
2023/02/06 08:23:13;;;;;;;;;14.00;13.75;;;;;4.72;50.38;101819.75;146609;617;46016;-71
2023/02/06 08:26:36;;;;;;;;;12.00;8.00;;;;;2.96;51.59;101487.09;146616;568;46020;-71
2023/02/06 08:29:41;;;;;;;;;11.75;10.00;;;;;5.03;49.72;101829.47;146614;637;46012;-72
2023/02/06 08:32:47;;;;;;;;;15.00;13.50;;;;;4.60;49.27;101729.59;146618;655;45020;-72
2023/02/06 08:35:48;;;;;;;;;11.50;10.00;;;;;5.04;49.96;101836.41;146612;570;46016;-72
2023/02/06 08:39:06;;;;;;;;;16.00;13.25;;;;;5.07;51.54;101831.56;146613;650;46020;-71
2023/02/06 08:42:05;;;;;;;;;12.25;8.50;;;;;5.31;49.28;101825.16;146612;581;46016;-72
2023/02/06 08:45:15;;;;;;;;;;;;;;;;;;;;;
2023/02/06 08:48:12;;;;;;;;;12.00;10.50;;;;;5.42;48.71;101848.34;146611;657;46017;-71
2023/02/06 08:51:12;;;;;;;;;18.75;13.50;;;;;5.48;49.07;101848.91;146617;659;46010;-73
2023/02/06 08:54:16;;;;;;;;;26.00;24.25;;;;;5.55;49.64;101836.75;146614;553;46014;-72
2023/02/06 08:57:19;;;;;;;;;15.25;12.75;;;;;5.58;49.25;101841.25;146616;586;46021;-72
2023/02/06 09:00:24;;;;;;;;;10.25;9.25;;;;;5.46;48.13;101838.50;146614;570;46012;-71
2023/02/06 09:03:23;;;;;;;;;6.00;6.00;;;;;5.32;47.89;101850.09;146618;615;46010;-77
2023/02/06 09:06:20;;;;;;;;;9.50;8.50;;;;;5.27;47.81;101855.62;146614;591;46012;-70
2023/02/06 09:09:29;;;;;;;;;8.00;7.00;;;;;5.32;48.02;101855.25;146614;583;46020;-72
2023/02/06 09:12:38;;;;;;;;;;;;;;;;;;;;;
2023/02/06 09:15:47;;;;;;;;;;;;;;;;;;;;;
2023/02/06 09:18:47;;;;;;;;;3.75;3.75;;;;;5.29;48.42;101856.63;146615;600;46012;-72
2023/02/06 09:21:54;;;;;;;;;9.25;8.00;;;;;5.30;48.30;101848.19;146615;660;47024;-74
2023/02/06 09:24:49;;;;;;;;;13.00;11.00;;;;;5.20;47.96;101853.22;146612;606;46016;-72
2023/02/06 09:27:45;;;;;;;;;10.25;10.25;;;;;5.07;47.34;101851.22;146617;592;46010;-73
2023/02/06 09:30:49;;;;;;;;;15.25;12.00;;;;;5.15;49.80;101846.78;146614;615;46012;-71
2023/02/06 09:33:47;;;;;;;;;11.00;8.50;;;;;5.42;47.80;101838.06;146613;671;46012;-71
2023/02/06 09:36:46;;;;;;;;;8.25;8.00;;;;;5.45;45.56;101844.41;146613;586;47012;-70
2023/02/06 09:39:51;;;;;;;;;17.25;14.50;;;;;5.27;47.62;101856.50;146615;600;46021;-68
2023/02/06 09:42:53;;;;;;;;;11.75;10.75;;;;;4.40;48.16;101685.03;146613;586;46014;-70
2023/02/06 09:46:11;;;;;;;;;23.00;19.25;;;;;5.29;48.99;101839.53;146614;578;46020;-70
2023/02/06 09:49:34;;;;;;;;;11.50;7.00;;;;;5.53;47.81;101827.97;146609;634;46031;-71
2023/02/06 09:53:30;;;;;;;;;;;;;;;;;;;;;
2023/02/06 09:57:02;;;;;;;;;26.75;25.25;;;;;5.45;47.67;101836.69;146614;581;46014;-74
2023/02/06 10:00:09;;;;;;;;;18.25;14.75;;;;;5.28;46.74;101840.31;146615;586;46020;-71
2023/02/06 10:03:47;;;;;;;;;15.00;7.25;;;;;3.96;48.59;101627.06;146613;626;46014;-68
2023/02/06 10:07:22;;;;;;;;;11.50;8.25;;;;;3.14;48.80;101513.50;146614;593;47013;-69
2023/02/06 10:10:50;;;;;;;;;32.00;25.00;;;;;3.30;49.76;101499.53;146611;572;46017;-76
2023/02/06 10:14:10;;;;;;;;;15.00;10.00;;;;;5.36;48.15;101824.66;146613;572;46020;-69
2023/02/06 10:17:32;;;;;;;;;15.00;11.25;;;;;5.38;48.55;101830.84;146610;604;47016;-70
2023/02/06 10:20:58;;;;;;;;;9.50;8.25;;;;;5.57;47.68;101821.44;146617;637;46010;-70
2023/02/06 10:24:35;;;;;;;;;20.00;17.50;;;;;5.54;47.67;101834.00;146611;610;46040;-69
2023/02/06 10:27:59;;;;;;;;;8.00;8.00;;;;;5.74;47.01;101831.56;146614;631;46020;-69
2023/02/06 10:31:22;;;;;;;;;11.75;9.00;;;;;5.98;47.67;101835.41;146613;599;46012;-69
2023/02/06 10:34:54;;;;;;;;;19.25;16.00;;;;;4.29;48.38;101494.81;146613;577;46021;-69
2023/02/06 10:38:28;;;;;;;;;13.25;10.50;;;;;5.30;48.50;101621.88;146612;573;46016;-69
2023/02/06 10:42:08;;;;;;;;;16.50;13.50;;;;;5.05;46.03;101505.75;146614;576;46023;-69
2023/02/06 10:45:58;;;;;;;;;7.25;6.50;;;;;5.40;46.64;101511.28;146612;596;46016;-68
2023/02/06 10:49:33;;;;;;;;;14.50;13.75;;;;;7.33;45.28;101813.28;146615;570;46020;-70
2023/02/06 10:53:10;;;;;;;;;8.25;8.00;;;;;5.81;45.04;101497.50;146611;609;46016;-69
2023/02/06 10:56:30;;;;;;;;;9.00;9.00;;;;;7.66;45.15;101823.59;146615;578;46021;-68
2023/02/06 10:59:47;;;;;;;;;6.50;6.50;;;;;7.68;42.48;101811.72;146611;564;46016;-68
2023/02/06 11:03:17;;;;;;;;;8.75;8.75;;;;;7.77;44.28;101813.37;146615;612;46012;-68
2023/02/06 11:06:48;;;;;;;;;29.25;25.75;;;;;6.06;44.41;101528.78;146609;611;47012;-69
2023/02/06 11:09:47;;;;;;;;;35.25;30.25;;;;;7.57;44.14;101822.09;146611;582;46011;-69
2023/02/06 11:13:20;;;;;;;;;27.50;19.50;;;;;5.25;44.14;101471.44;146607;622;46012;-70
2023/02/06 11:16:44;;;;;;;;;50.25;40.00;;;;;6.77;43.57;101817.22;146608;570;47010;-70
2023/02/06 11:19:49;;;;;;;;;34.00;28.50;;;;;6.42;46.13;101820.31;146606;588;46016;-70
2023/02/06 11:22:41;;;;;;;;;27.75;22.75;;;;;6.24;46.94;101818.72;146603;670;46910;-68
2023/02/06 11:26:00;;;;;;;;;21.75;18.75;;;;;6.11;46.60;101823.59;146605;581;46016;-69
2023/02/06 11:29:09;;;;;;;;;21.75;19.50;;;;;6.00;46.64;101810.69;146608;608;46012;-69
2023/02/06 11:32:39;;;;;;;;;17.50;13.75;;;;;5.96;48.01;101818.03;146609;569;46014;-69
2023/02/06 11:36:10;;;;;;;;;10.50;9.25;;;;;4.46;47.41;101497.22;146611;565;45020;-68
2023/02/06 11:39:29;;;;;;;;;15.25;14.00;;;;;6.42;46.57;101809.09;146612;630;46013;-69
2023/02/06 11:42:36;;;;;;;;;18.75;16.75;;;;;6.42;46.29;101810.00;146607;582;46012;-69
2023/02/06 11:45:39;;;;;;;;;14.25;14.25;;;;;6.38;46.71;101807.91;146608;573;46016;-70
2023/02/06 11:49:03;;;;;;;;;10.50;9.25;;;;;4.48;45.81;101472.56;146612;589;46034;-71
2023/02/06 11:52:09;;;;;;;;;33.75;30.00;;;;;6.19;46.86;101800.28;146608;582;46016;-69
2023/02/06 11:55:15;;;;;;;;;;;;;;;;;;;;;
2023/02/06 11:58:36;;;;;;;;;27.50;23.75;;;;;5.96;47.78;101792.28;146612;617;46014;-70
2023/02/06 12:01:30;;;;;;;;;43.25;34.50;;;;;5.90;46.03;101804.59;146611;596;46021;-67
2023/02/06 12:04:50;;;;;;;;;30.50;27.50;;;;;5.93;47.44;101792.91;146615;579;45016;-70
2023/02/06 12:08:15;;;;;;;;;23.75;19.00;;;;;6.03;46.83;101798.84;146613;594;47051;-71
2023/02/06 12:11:27;;;;;;;;;26.75;23.50;;;;;5.92;47.84;101751.53;146610;566;46012;-71
2023/02/06 12:14:46;;;;;;;;;10.00;10.00;;;;;4.60;47.69;101465.91;146615;565;47010;-68
2023/02/06 12:17:55;;;;;;;;;8.50;7.50;;;;;6.67;46.62;101812.97;146614;584;47012;-70
2023/02/06 12:21:34;;;;;;;;;11.50;10.50;;;;;5.79;45.48;101608.97;146616;579;46020;-69
2023/02/06 12:25:06;;;;;;;;;14.75;14.00;;;;;7.13;46.31;101805.56;146610;600;46027;-69
2023/02/06 12:28:28;;;;;;;;;22.00;19.00;;;;;7.45;45.56;101810.78;146613;573;46022;-70
2023/02/06 12:32:27;;;;;;;;;7.25;5.00;;;;;5.28;44.63;101391.97;146611;599;47912;-69
2023/02/06 12:36:01;;;;;;;;;16.25;14.25;;;;;6.00;44.92;101491.44;146612;598;46020;-69
2023/02/06 12:39:28;;;;;;;;;22.75;18.25;;;;;7.84;43.56;101812.16;146614;576;46016;-69
2023/02/06 12:43:00;;;;;;;;;12.75;12.00;;;;;6.20;44.79;101503.38;146615;684;46020;-68
2023/02/06 12:46:25;;;;;;;;;8.50;8.50;;;;;6.13;43.24;101474.41;146608;564;46017;-69
2023/02/06 12:50:13;;;;;;;;;9.50;9.50;;;;;6.20;43.92;101503.38;146615;588;46020;-68
2023/02/06 12:53:49;;;;;;;;;9.75;8.50;;;;;7.99;43.05;101820.25;146607;619;46016;-69
2023/02/06 12:57:23;;;;;;;;;14.50;12.50;;;;;8.06;44.02;101807.00;146614;679;45020;-69
2023/02/06 13:00:58;;;;;;;;;15.75;15.50;;;;;8.14;42.92;101802.47;146609;592;46013;-69
2023/02/06 13:04:12;;;;;;;;;17.00;15.75;;;;;8.16;43.81;101812.13;146606;565;46020;-70
2023/02/06 13:07:26;;;;;;;;;16.75;16.75;;;;;8.34;43.81;101812.66;146604;653;47013;-70
2023/02/06 13:10:39;;;;;;;;;10.75;9.00;;;;;8.53;43.45;101815.88;146615;578;47020;-69
2023/02/06 13:14:16;;;;;;;;;9.00;8.50;;;;;6.35;39.41;101431.56;146613;569;46016;-69
2023/02/06 13:17:44;;;;;;;;;14.25;12.00;;;;;6.62;41.04;101505.00;146609;582;46021;-69
2023/02/06 13:21:21;;;;;;;;;14.00;10.75;;;;;7.07;43.00;101609.06;146607;563;46012;-69
2023/02/06 13:24:23;;;;;;;;;9.25;8.50;;;;;8.36;43.05;101815.38;146612;588;47021;-70
2023/02/06 13:28:04;;;;;;;;;14.75;12.00;;;;;8.43;45.42;101818.56;146611;668;46012;-69
2023/02/06 13:31:32;;;;;;;;;11.75;11.50;;;;;6.93;43.73;101512.59;146614;579;47021;-69
2023/02/06 13:34:31;;;;;;;;;10.50;9.00;;;;;8.59;39.28;101822.31;146611;565;46016;-69
2023/02/06 13:37:47;;;;;;;;;9.75;8.50;;;;;8.19;42.91;101816.63;146613;560;46021;-71
2023/02/06 13:40:50;;;;;;;;;19.75;17.00;;;;;7.42;42.56;101694.41;146606;593;46040;-70
2023/02/06 13:44:37;;;;;;;;;19.25;16.25;;;;;8.23;41.96;101824.75;146607;569;46029;-71
2023/02/06 13:48:28;;;;;;;;;21.00;17.25;;;;;6.38;42.20;101523.66;146607;574;46016;-71
2023/02/06 13:51:55;;;;;;;;;5.00;2.50;;;;;8.29;44.13;101822.66;146615;666;46012;-70
2023/02/06 13:55:56;;;;;;;;;11.75;11.50;;;;;7.03;43.80;101532.25;146608;565;46012;-71
2023/02/06 13:59:05;;;;;;;;;10.00;9.25;;;;;9.00;42.27;101831.56;146613;600;46010;-70
2023/02/06 14:02:31;;;;;;;;;14.50;14.00;;;;;7.73;43.57;101575.50;146609;602;46012;-71
2023/02/06 14:06:25;;;;;;;;;12.75;10.25;;;;;7.62;43.05;101536.84;146610;636;46010;-71
2023/02/06 14:10:00;;;;;;;;;10.75;9.75;;;;;7.74;42.37;101546.31;146624;598;47016;-69
2023/02/06 14:13:34;;;;;;;;;22.25;20.25;;;;;9.52;42.47;101837.09;146609;596;46010;-69
2023/02/06 14:17:03;;;;;;;;;11.00;10.00;;;;;9.49;41.32;101836.87;146613;571;46017;-70
2023/02/06 14:20:43;;;;;;;;;15.50;14.50;;;;;7.44;42.58;101534.53;146608;583;46020;-69
2023/02/06 14:24:33;;;;;;;;;14.25;14.00;;;;;8.74;41.99;101839.00;146611;581;46017;-70
2023/02/06 14:28:38;;;;;;;;;21.00;20.00;;;;;8.23;44.93;101849.69;146610;608;46020;-70
2023/02/06 14:32:36;;;;;;;;;7.75;6.75;;;;;6.33;42.79;101613.44;146613;604;46016;-70
2023/02/06 14:36:12;;;;;;;;;12.00;11.00;;;;;7.35;43.21;101852.09;146614;739;46010;-70
2023/02/06 14:39:35;;;;;;;;;8.75;7.50;;;;;7.12;42.60;101855.34;146610;614;46017;-71
2023/02/06 14:43:01;;;;;;;;;15.00;10.50;;;;;6.04;43.79;101695.09;146611;594;46010;-72
2023/02/06 14:46:07;;;;;;;;;20.25;18.50;;;;;6.80;42.77;101860.41;146605;564;47014;-73
2023/02/06 14:49:21;;;;;;;;;30.25;26.25;;;;;6.61;42.99;101869.16;146608;594;46020;-72
2023/02/06 14:52:21;;;;;;;;;20.25;16.25;;;;;6.40;41.33;101865.62;146606;566;46016;-68
2023/02/06 14:55:50;;;;;;;;;18.50;17.00;;;;;4.12;44.12;101531.84;146609;579;46020;-71
2023/02/06 14:58:57;;;;;;;;;;;;;;;;;;;;;
2023/02/06 15:01:59;;;;;;;;;5.00;5.00;;;;;5.84;42.59;101895.03;146616;607;46020;-70
2023/02/06 15:04:52;;;;;;;;;13.00;12.00;;;;;5.76;43.33;101901.16;146606;560;46012;-70
2023/02/06 15:07:45;;;;;;;;;9.00;9.00;;;;;5.75;44.17;101905.41;146608;626;46010;-71
2023/02/06 15:10:46;;;;;;;;;6.50;6.50;;;;;5.75;44.44;101902.81;146614;583;46016;-71
2023/02/06 15:13:53;;;;;;;;;11.00;11.00;;;;;5.71;44.66;101899.88;146610;570;46020;-70
2023/02/06 15:16:52;;;;;;;;;10.00;7.25;;;;;5.67;44.38;101914.13;146602;662;46017;-71
2023/02/06 15:19:57;;;;;;;;;9.00;8.50;;;;;5.53;43.91;101923.16;146614;620;46012;-70
2023/02/06 15:22:51;;;;;;;;;11.75;10.50;;;;;5.42;45.30;101920.38;146612;586;46016;-70
2023/02/06 15:26:20;;;;;;;;;14.50;11.00;;;;;5.34;46.05;101932.56;146611;599;46020;-70
2023/02/06 15:29:23;;;;;;;;;17.75;13.50;;;;;5.26;44.10;101938.66;146606;621;46908;-69
2023/02/06 15:32:49;;;;;;;;;12.75;10.25;;;;;5.20;45.88;101953.50;146614;649;46020;-71
2023/02/06 15:35:54;;;;;;;;;15.75;13.50;;;;;5.07;46.25;101946.34;146607;590;47012;-71